Time;durP1;ratioP1;P1;durP2;ratioP2;P2;SDS_P1;SDS_P2;PMS_P1;PMS_P2;Temp;Humidity;BMP_temperature;BMP_pressure;BME280_temperature;BME280_humidity;BME280_pressure;Samples;Min_cycle;Max_cycle;Signal;HPM_P1;HPM_P2
2022/12/17 13:06:49;;;;;;;62.53;26.37;;;-1.30;99.90;;;;;;6160188;23;20021;-84
2022/12/17 13:10:01;;;;;;;60.20;27.97;;;-1.40;99.90;;;;;;6186397;23;20476;-84
2022/12/17 13:12:46;;;;;;;63.93;27.10;;;-1.40;99.90;;;;;;6160210;23;20013;-83
2022/12/17 13:15:17;;;;;;;54.00;23.33;;;-1.60;99.90;;;;;;6159992;23;20009;-83
2022/12/17 13:18:07;;;;;;;62.03;25.73;;;-1.50;99.90;;;;;;6159226;23;20353;-83
2022/12/17 13:21:24;;;;;;;65.97;26.40;;;-1.40;99.90;;;;;;6140249;23;20142;-84
2022/12/17 13:23:50;;;;;;;65.23;26.00;;;-0.90;99.90;;;;;;6101826;23;20025;-84
2022/12/17 13:26:41;;;;;;;62.43;26.13;;;0.00;99.90;;;;;;6101212;23;20225;-84
2022/12/17 13:29:36;;;;;;;64.00;27.13;;;-1.40;99.90;;;;;;6101163;23;20025;-85
2022/12/17 13:33:03;;;;;;;65.47;25.90;;;-0.60;99.90;;;;;;6133422;23;20101;-89
2022/12/17 13:36:06;;;;;;;69.30;27.67;;;-1.60;99.90;;;;;;6127790;23;20363;-86
2022/12/17 13:39:58;;;;;;;67.77;27.30;;;-0.90;99.90;;;;;;6061005;23;20076;-84
2022/12/17 13:42:36;;;;;;;72.03;27.73;;;-0.70;99.90;;;;;;6127023;23;20040;-83
2022/12/17 13:45:02;;;;;;;74.80;28.27;;;-1.80;99.90;;;;;;6126294;23;20017;-83
2022/12/17 13:48:11;;;;;;;69.67;26.93;;;-1.50;99.90;;;;;;6100754;23;20046;-83
2022/12/17 13:50:37;;;;;;;76.10;28.23;;;-1.60;99.90;;;;;;6127396;23;20022;-82
2022/12/17 13:53:14;;;;;;;70.97;27.07;;;-1.70;99.90;;;;;;6099624;23;20014;-82
2022/12/17 13:58:27;;;;;;;79.20;29.17;;;-1.60;99.90;;;;;;6125957;23;20022;-81
2022/12/17 14:01:30;;;;;;;68.70;27.07;;;-2.00;99.90;;;;;;6100240;23;20347;-82
2022/12/17 14:03:58;;;;;;;72.10;25.43;;;-2.50;99.90;;;;;;6126679;23;20025;-82
2022/12/17 14:06:33;;;;;;;70.07;25.57;;;-2.00;99.90;;;;;;6128897;23;20018;-83
2022/12/17 14:09:17;;;;;;;74.17;27.07;;;-1.90;99.90;;;;;;6105182;23;20613;-83
2022/12/17 14:12:22;;;;;;;69.88;26.30;;;-1.10;99.90;;;;;;6101116;23;20140;-83
2022/12/17 14:15:30;;;;;;;;;;;-2.00;99.90;;;;;;6126657;23;20018;-83
2022/12/17 14:18:14;;;;;;;80.13;26.90;;;-1.70;99.90;;;;;;6126954;23;19944;-83
2022/12/17 14:20:48;;;;;;;82.80;28.48;;;-2.00;99.90;;;;;;6100254;23;20446;-84
2022/12/17 14:23:32;;;;;;;78.25;26.30;;;-2.20;99.90;;;;;;6126538;23;20010;-82
2022/12/17 14:29:06;;;;;;;75.47;29.23;;;-1.90;99.90;;;;;;6125329;23;20391;-82
2022/12/17 14:35:38;;;;;;;79.63;25.63;;;-2.70;99.90;;;;;;6125088;23;20025;-83
2022/12/17 14:38:31;;;;;;;73.67;23.37;;;-1.40;99.90;;;;;;6070706;23;20029;-82
2022/12/17 14:43:57;;;;;;;75.27;24.13;;;-2.30;99.90;;;;;;6093581;23;20510;-79
2022/12/17 14:46:24;;;;;;;77.43;25.73;;;-2.30;99.90;;;;;;6097360;23;20078;-81
2022/12/17 14:49:01;;;;;;;75.97;24.40;;;-2.30;99.90;;;;;;6096790;23;20085;-81
2022/12/17 14:54:27;;;;;;;80.87;24.67;;;-2.20;99.90;;;;;;6123659;23;20442;-81
2022/12/17 14:56:58;;;;;;;87.47;25.80;;;-1.70;99.90;;;;;;6124367;23;20017;-82
2022/12/17 14:59:49;;;;;;;83.00;26.17;;;-2.50;99.90;;;;;;6101429;23;20036;-82
2022/12/17 15:02:26;;;;;;;77.03;24.63;;;-1.10;99.90;;;;;;6098472;23;20017;-81
2022/12/17 15:05:03;;;;;;;73.97;23.07;;;-2.10;99.90;;;;;;6098771;23;20483;-81
2022/12/17 15:07:45;;;;;;;78.47;24.17;;;-2.40;99.90;;;;;;6098921;23;20457;-81
2022/12/17 15:15:44;;;;;;;79.23;26.33;;;-2.70;99.90;;;;;;6128070;23;20057;-81
2022/12/17 15:18:10;;;;;;;77.03;25.20;;;-2.20;99.90;;;;;;6135115;23;20017;-80
2022/12/17 15:20:36;;;;;;;74.80;25.60;;;-2.60;99.90;;;;;;6154067;23;20025;-80
2022/12/17 15:23:01;;;;;;;86.97;28.53;;;-2.60;99.90;;;;;;6154247;23;20021;-81
2022/12/17 15:25:27;;;;;;;78.27;25.37;;;-2.60;99.90;;;;;;6153093;23;20045;-81
2022/12/17 15:27:57;;;;;;;80.50;25.60;;;-2.60;99.90;;;;;;6128344;23;20398;-81
2022/12/17 15:30:25;;;;;;;89.63;27.00;;;-2.60;99.90;;;;;;6153437;23;20021;-81
2022/12/17 15:33:24;;;;;;;77.97;26.03;;;-2.80;99.90;;;;;;6128029;23;20025;-81
2022/12/17 15:35:49;;;;;;;101.07;29.57;;;-1.60;99.90;;;;;;6127877;23;20083;-81
2022/12/17 15:38:15;;;;;;;81.37;26.07;;;-2.80;99.90;;;;;;6126118;23;20526;-81
2022/12/17 15:40:43;;;;;;;81.60;26.60;;;-1.20;99.90;;;;;;6154498;23;20017;-81
2022/12/17 15:43:10;;;;;;;80.73;26.83;;;-2.90;99.90;;;;;;6127327;23;20049;-81
2022/12/17 15:45:50;;;;;;;84.90;27.83;;;-2.90;99.90;;;;;;6126988;23;20018;-81
2022/12/17 15:48:22;;;;;;;83.40;26.80;;;-2.80;99.90;;;;;;6127039;23;20025;-81
2022/12/17 15:50:54;;;;;;;87.07;27.93;;;-2.80;99.90;;;;;;6128148;23;20017;-81
2022/12/17 15:53:19;;;;;;;95.93;28.47;;;-2.80;99.90;;;;;;6130616;23;20009;-81
2022/12/17 15:56:03;;;;;;;85.33;28.80;;;-1.10;99.90;;;;;;6153594;23;20021;-83
2022/12/17 15:58:32;;;;;;;90.70;30.40;;;-2.50;99.90;;;;;;6127022;23;20048;-83
2022/12/17 16:01:05;;;;;;;90.90;31.73;;;-1.60;99.90;;;;;;6121981;23;20181;-83
2022/12/17 16:04:21;;;;;;;103.97;31.20;;;-2.30;99.90;;;;;;6153897;23;20017;-83
2022/12/17 16:07:08;;;;;;;87.03;28.20;;;-2.20;99.90;;;;;;5982450;23;20035;-83
2022/12/17 16:13:39;;;;;;;98.93;31.40;;;-3.20;99.90;;;;;;6013620;23;20065;-84
2022/12/17 16:16:28;;;;;;;97.13;30.83;;;-3.10;99.90;;;;;;6154173;23;20434;-84
2022/12/17 16:19:00;;;;;;;87.60;29.27;;;-3.30;99.90;;;;;;6127199;23;20022;-84
2022/12/17 16:21:39;;;;;;;96.33;32.37;;;-2.70;99.90;;;;;;6126332;23;20488;-84
2022/12/17 16:24:26;;;;;;;96.43;32.90;;;-1.80;99.90;;;;;;6127167;23;20729;-84
2022/12/17 16:34:43;;;;;;;101.93;32.53;;;-2.70;99.90;;;;;;6092228;23;20057;-84
2022/12/17 16:37:14;;;;;;;100.27;35.20;;;-3.00;99.90;;;;;;6074693;23;20109;-84
2022/12/17 16:40:31;;;;;;;111.67;34.17;;;-2.80;99.90;;;;;;6091842;23;20022;-84
2022/12/17 16:42:57;;;;;;;112.13;34.00;;;-2.80;99.90;;;;;;6090958;23;20023;-83
2022/12/17 16:45:25;;;;;;;112.07;35.07;;;-0.90;99.90;;;;;;6093808;23;20089;-83
2022/12/17 16:48:12;;;;;;;102.13;35.07;;;-2.40;99.90;;;;;;6092397;23;20171;-83
2022/12/17 16:50:55;;;;;;;109.20;35.13;;;-2.70;99.90;;;;;;6045514;23;1118521;-84
2022/12/17 16:54:25;;;;;;;105.65;34.63;;;-1.90;99.90;;;;;;6092845;23;20356;-84
2022/12/17 17:01:11;;;;;;;107.37;35.83;;;-3.30;99.90;;;;;;6087881;23;20024;-85
2022/12/17 17:03:56;;;;;;;96.37;35.07;;;-2.90;99.90;;;;;;6096869;23;20018;-85
2022/12/17 17:06:22;;;;;;;103.70;34.50;;;-3.00;99.90;;;;;;6090303;23;20022;-85
2022/12/17 17:09:10;;;;;;;106.83;36.03;;;-1.90;99.90;;;;;;6093371;23;20082;-84
2022/12/17 17:11:36;;;;;;;114.53;38.37;;;-3.30;99.90;;;;;;6095786;23;20018;-84
2022/12/17 17:14:21;;;;;;;107.13;36.97;;;-3.50;99.90;;;;;;6094681;23;20021;-84
2022/12/17 17:16:53;;;;;;;108.50;38.17;;;-1.60;99.90;;;;;;6093870;23;20020;-84
2022/12/17 17:19:37;;;;;;;106.73;38.70;;;-3.10;99.90;;;;;;6096345;23;20045;-83
2022/12/17 17:22:02;;;;;;;;;;;-2.70;99.90;;;;;;6095361;23;20081;-86
2022/12/17 17:24:34;;;;;;;111.63;38.57;;;-1.80;99.90;;;;;;6093162;23;20273;-85
2022/12/17 17:27:18;;;;;;;124.97;41.43;;;-3.20;99.90;;;;;;6094725;23;20077;-84
2022/12/17 17:30:03;;;;;;;108.60;38.47;;;-2.60;99.90;;;;;;6094604;23;20359;-87
2022/12/17 17:32:29;;;;;;;114.93;39.80;;;-2.10;99.90;;;;;;6096549;23;20029;-87
2022/12/17 17:35:11;;;;;;;115.87;41.57;;;-1.90;99.90;;;;;;6098689;23;20019;-87
2022/12/17 17:39:04;;;;;;;106.60;38.83;;;-1.50;99.90;;;;;;6088891;23;20392;-86
2022/12/17 17:46:23;;;;;;;108.43;39.00;;;-3.20;99.90;;;;;;6008243;23;20028;-86
2022/12/17 18:00:55;;;;;;;114.73;40.93;;;-3.20;99.90;;;;;;5815707;24;20031;-87
2022/12/17 18:04:07;;;;;;;108.43;39.73;;;-3.80;99.90;;;;;;5794531;24;20089;-86
2022/12/17 18:15:58;;;;;;;;;;;;;;;;;;;;;
2022/12/17 18:27:15;;;;;;;112.50;41.87;;;-3.00;99.90;;;;;;5871050;24;20512;-86
2022/12/17 18:34:37;;;;;;;117.20;41.87;;;-3.90;99.90;;;;;;5842483;24;20033;-86
2022/12/17 18:51:04;;;;;;;116.32;42.45;;;-1.80;99.90;;;;;;5739656;25;20494;-86
2022/12/17 18:54:16;;;;;;;114.10;40.40;;;-3.10;99.90;;;;;;5779299;24;20439;-86
2022/12/17 18:56:42;;;;;;;113.82;38.67;;;-2.00;99.90;;;;;;5994195;23;20081;-86
2022/12/17 18:59:39;;;;;;;112.60;37.77;;;-1.00;99.90;;;;;;6069531;23;20047;-87
2022/12/17 19:08:37;;;;;;;108.00;37.83;;;-3.70;99.90;;;;;;6070031;23;20024;-86
2022/12/17 19:11:21;;;;;;;115.63;40.50;;;-1.90;99.90;;;;;;6097626;23;20093;-87
2022/12/17 19:14:10;;;;;;;114.28;40.25;;;-2.90;99.90;;;;;;6097074;23;20014;-86
2022/12/17 19:24:00;;;;;;;125.17;41.60;;;-4.10;99.90;;;;;;6037393;23;20023;-86
2022/12/17 19:26:45;;;;;;;114.80;39.00;;;-3.60;99.90;;;;;;6008566;23;20040;-86
2022/12/17 19:29:20;;;;;;;129.07;41.23;;;-3.00;99.90;;;;;;6023197;23;20026;-85
2022/12/17 19:32:15;;;;;;;112.30;39.10;;;-2.40;99.90;;;;;;6070410;23;20034;-84
2022/12/17 19:35:09;;;;;;;125.17;41.33;;;-2.70;99.90;;;;;;5928964;24;20024;-87
2022/12/17 19:37:48;;;;;;;117.97;38.80;;;-2.70;99.90;;;;;;5956356;24;20535;-87
2022/12/17 19:41:22;;;;;;;127.47;39.97;;;-3.70;99.90;;;;;;6069167;23;20014;-87
2022/12/17 19:44:56;;;;;;;118.27;38.53;;;-2.20;99.90;;;;;;6127529;23;20017;-87
2022/12/17 19:47:24;;;;;;;108.80;36.63;;;-3.90;99.90;;;;;;6129215;23;20080;-87
2022/12/17 19:50:03;;;;;;;120.60;38.70;;;-3.90;99.90;;;;;;6156004;23;20005;-87
2022/12/17 19:52:30;;;;;;;116.97;38.27;;;-2.90;99.90;;;;;;6128098;23;20024;-87
2022/12/17 19:55:21;;;;;;;117.47;39.73;;;-3.80;99.90;;;;;;6129219;23;20088;-87
2022/12/17 19:58:42;;;;;;;116.17;36.30;;;-4.00;99.90;;;;;;6135480;23;20017;-86
2022/12/17 20:01:15;;;;;;;117.13;36.70;;;-2.80;99.90;;;;;;6129857;23;20049;-87
2022/12/17 20:03:47;;;;;;;124.37;39.33;;;-3.80;99.90;;;;;;6157377;23;20028;-87
2022/12/17 20:09:52;;;;;;;105.20;35.30;;;-4.70;99.90;;;;;;6155584;23;20144;-87
2022/12/17 20:12:36;;;;;;;123.17;40.37;;;-3.10;99.90;;;;;;6128701;23;20017;-87
2022/12/17 20:15:23;;;;;;;126.38;38.35;;;-3.80;99.90;;;;;;6129162;23;20029;-87
2022/12/17 20:18:09;;;;;;;115.00;37.27;;;-3.40;99.90;;;;;;5991909;23;20030;-87
2022/12/17 20:24:36;;;;;;;126.50;39.23;;;-4.40;99.90;;;;;;6148001;23;20105;-86
2022/12/17 20:27:30;;;;;;;110.10;35.53;;;-3.40;99.90;;;;;;6007109;23;20023;-86
2022/12/17 20:29:59;;;;;;;;;;;-3.40;99.90;;;;;;5986689;23;20019;-86
2022/12/17 20:32:37;;;;;;;125.50;37.27;;;-3.40;99.90;;;;;;5983173;23;19925;-85
2022/12/17 20:35:37;;;;;;;119.70;37.77;;;-2.70;99.90;;;;;;6010415;23;20059;-84
2022/12/17 20:44:46;;;;;;;;;;;;;;;;;;;;;
2022/12/17 20:47:56;;;;;;;118.90;37.30;;;-3.90;99.90;;;;;;6123368;23;20066;-85
2022/12/17 20:50:24;;;;;;;122.83;39.80;;;-2.50;99.90;;;;;;6123761;23;20054;-85
2022/12/17 20:53:07;;;;;;;134.30;39.30;;;-3.60;99.90;;;;;;6123762;23;20025;-85
2022/12/17 20:55:33;;;;;;;131.43;39.03;;;-3.80;99.90;;;;;;6122022;23;20014;-85
2022/12/17 20:58:10;;;;;;;133.73;40.30;;;-3.40;99.90;;;;;;6099839;23;20018;-85
2022/12/17 21:01:22;;;;;;;139.77;41.17;;;-2.90;99.90;;;;;;6124621;23;20426;-85
2022/12/17 21:05:10;;;;;;;129.70;38.70;;;-3.20;99.90;;;;;;6124008;23;20128;-85
2022/12/17 21:07:43;;;;;;;130.80;39.90;;;-4.40;99.90;;;;;;5996249;23;20020;-83
2022/12/17 21:10:27;;;;;;;125.67;37.97;;;-2.50;99.90;;;;;;6027173;23;20022;-85
2022/12/17 21:17:13;;;;;;;;;;;;;;;;;;;;;
2022/12/17 21:20:19;;;;;;;126.83;41.20;;;-4.70;99.90;;;;;;5944580;23;20034;-85
2022/12/17 21:22:47;;;;;;;117.70;38.80;;;-2.70;99.90;;;;;;6049454;23;20088;-84
2022/12/17 21:25:15;;;;;;;116.47;38.60;;;-3.60;99.90;;;;;;6096950;23;20093;-86
2022/12/17 21:27:47;;;;;;;119.47;39.30;;;-3.50;99.90;;;;;;6073772;23;20033;-85
2022/12/17 21:30:28;;;;;;;115.23;38.80;;;-3.50;99.90;;;;;;6073161;23;20050;-85
2022/12/17 21:33:00;;;;;;;112.40;38.30;;;-2.00;99.90;;;;;;6099806;23;20014;-86
2022/12/17 21:35:34;;;;;;;111.50;38.03;;;-2.20;99.90;;;;;;6099931;23;20022;-86
2022/12/17 21:45:32;;;;;;;118.30;39.57;;;-3.30;99.90;;;;;;6091502;23;20054;-84
2022/12/17 21:48:06;;;;;;;111.50;37.53;;;-2.60;99.90;;;;;;6099904;23;20023;-85
2022/12/17 21:50:50;;;;;;;113.37;39.50;;;-4.00;99.90;;;;;;6066863;23;20065;-85
2022/12/17 21:53:27;;;;;;;116.40;38.30;;;-4.40;99.90;;;;;;6073570;23;20019;-85
2022/12/17 21:56:25;;;;;;;113.93;38.08;;;-4.50;99.90;;;;;;6072876;23;20034;-85
2022/12/17 22:05:21;;;;;;;124.83;39.03;;;-4.00;99.90;;;;;;6124425;23;20027;-85
2022/12/17 22:08:33;;;;;;;117.63;38.37;;;-4.60;99.90;;;;;;6096816;23;20014;-85
2022/12/17 22:11:28;;;;;;;129.80;39.27;;;-4.70;99.90;;;;;;6097424;23;20018;-85
2022/12/17 22:14:21;;;;;;;123.20;38.53;;;-3.50;99.90;;;;;;6095811;23;20041;-85
2022/12/17 22:21:38;;;;;;;136.97;40.37;;;-4.40;99.90;;;;;;5933781;24;20027;-85
2022/12/17 22:24:23;;;;;;;131.57;41.07;;;-4.10;99.90;;;;;;5980331;24;20024;-85
2022/12/17 22:26:58;;;;;;;127.53;41.10;;;-2.90;99.90;;;;;;5971659;23;20092;-85
2022/12/17 22:37:37;;;;;;;138.67;42.00;;;-3.90;99.90;;;;;;6096834;23;20099;-85
2022/12/17 22:40:03;;;;;;;144.43;43.47;;;-2.90;99.90;;;;;;6079335;23;20075;-85
2022/12/17 22:45:50;;;;;;;136.90;41.30;;;-2.80;99.90;;;;;;6067269;23;20201;-86
2022/12/17 22:48:22;;;;;;;154.43;41.73;;;-2.90;99.90;;;;;;6065537;23;20014;-86
2022/12/17 22:51:25;;;;;;;138.57;42.23;;;-4.30;99.90;;;;;;6065696;23;20011;-85
2022/12/17 22:54:29;;;;;;;139.43;43.13;;;-4.30;99.90;;;;;;6074560;23;20014;-85
2022/12/17 22:57:16;;;;;;;109.60;35.33;;;-3.50;99.90;;;;;;5957174;24;20031;-85
2022/12/17 22:59:46;;;;;;;121.30;36.00;;;-3.70;99.90;;;;;;6019177;23;20023;-85
2022/12/17 23:02:20;;;;;;;112.33;35.57;;;-4.00;99.90;;;;;;6064835;23;20384;-85
2022/12/17 23:04:58;;;;;;;127.43;37.13;;;-4.50;99.90;;;;;;6066612;23;20026;-85
2022/12/17 23:07:27;;;;;;;126.83;37.93;;;-4.50;99.90;;;;;;6068324;23;20019;-85
2022/12/17 23:09:52;;;;;;;135.47;38.63;;;-4.50;99.90;;;;;;6066371;23;20023;-85
2022/12/17 23:12:54;;;;;;;124.50;37.17;;;-2.50;99.90;;;;;;6068471;23;20023;-85
2022/12/17 23:15:42;;;;;;;129.87;37.57;;;-2.40;99.90;;;;;;6065493;23;20066;-85
2022/12/17 23:18:07;;;;;;;140.67;39.63;;;-3.00;99.90;;;;;;6066218;23;20015;-85
2022/12/17 23:20:55;;;;;;;141.17;39.43;;;-2.30;99.90;;;;;;6066204;23;20017;-85
2022/12/17 23:23:21;;;;;;;147.60;38.50;;;-2.30;99.90;;;;;;6065812;23;20486;-85
2022/12/17 23:25:47;;;;;;;142.03;40.07;;;;;;;;;;6067203;23;20019;-85
2022/12/17 23:28:31;;;;;;;152.03;41.33;;;-4.20;99.90;;;;;;6073878;23;20094;-84
2022/12/17 23:31:21;;;;;;;138.02;39.03;;;-3.10;99.90;;;;;;6067969;23;20391;-86
2022/12/17 23:33:50;;;;;;;130.77;38.37;;;-4.90;99.90;;;;;;6066726;23;20101;-85
2022/12/17 23:36:32;;;;;;;132.93;38.00;;;-3.90;99.90;;;;;;6058924;23;20097;-85
2022/12/17 23:38:58;;;;;;;125.50;37.47;;;-4.60;99.90;;;;;;6069936;23;20026;-85
2022/12/17 23:45:29;;;;;;;107.63;35.27;;;-3.00;99.90;;;;;;6067359;23;20027;-85
2022/12/17 23:48:17;;;;;;;99.93;33.93;;;-3.60;99.90;;;;;;6045283;23;20221;-84
2022/12/17 23:54:33;;;;;;;103.50;34.97;;;-5.20;99.90;;;;;;6077170;23;20026;-85
2022/12/17 23:57:02;;;;;;;96.88;33.72;;;-1.90;99.90;;;;;;6096165;23;20054;-84
2022/12/17 23:59:36;;;;;;;114.10;35.83;;;-4.20;99.90;;;;;;6096435;23;20019;-85
